McGill, Nevada
Current Conditions -  °F | °C
As of 7:53 AM on Friday 19 Dec 2014 (Local Time) from KELY Reporting Station
Few Clouds Few Clouds  
Wind Chill: 13°   Ceiling: Unl
Heat Index: 22°   Visibility: 10mi
Dew Point: 18°   Wind: 7mph
Humidity: 85%   Direction: 140°SE
Pressure: 30.2"   Gusts: NA
Location:  39.4°N, 114.78°W
Report Text: KELY 191553Z AUTO 14006KT 10SM FEW120 M06/M08 A3020 RMK AO2 SLP257 T10561078
Loading
Personal Weather Stations






























Interactive Weather Map New forecast layout! Learn more

10-Day Weather Forecast

Advertisements
Track Severe Weather on mobile